createdAt,value
2022-11-07T05:17:38.934Z,99883.84
2022-11-07T05:20:05.963Z,99881.75
2022-11-07T05:22:56.006Z,99879.84
2022-11-07T05:25:22.768Z,99879.19
2022-11-07T05:27:49.143Z,99887.03
2022-11-07T05:30:15.615Z,99888.50
2022-11-07T05:32:42.280Z,99896.28
2022-11-07T05:35:09.126Z,99886.59
2022-11-07T05:37:35.545Z,99892.56
2022-11-07T05:40:02.003Z,99880.38
2022-11-07T05:42:28.471Z,99876.38
2022-11-07T05:44:54.912Z,99883.97
2022-11-07T05:47:21.332Z,99886.44
2022-11-07T05:49:47.728Z,99890.66
2022-11-07T05:52:14.305Z,99885.28
2022-11-07T05:54:41.878Z,99890.53
2022-11-07T05:57:09.409Z,99896.06
2022-11-07T05:59:35.869Z,99896.84
2022-11-07T06:02:03.551Z,99895.59
2022-11-07T06:04:30.272Z,99895.44
2022-11-07T06:06:56.875Z,99903.50
2022-11-07T06:09:23.271Z,99895.28
2022-11-07T06:11:49.741Z,99896.91
2022-11-07T06:14:16.406Z,99901.22
2022-11-07T06:16:42.880Z,99895.25
2022-11-07T06:19:09.268Z,99902.94
2022-11-07T06:21:35.732Z,99900.25
2022-11-07T06:24:02.194Z,99902.78
2022-11-07T06:26:29.566Z,99902.69
2022-11-07T06:28:56.009Z,99907.19
2022-11-07T06:31:22.508Z,99918.00
2022-11-07T06:33:51.034Z,99919.41
2022-11-07T06:36:18.018Z,99915.75
2022-11-07T06:38:44.544Z,99919.44
2022-11-07T06:41:14.984Z,99915.22
2022-11-07T06:43:42.373Z,99919.69
2022-11-07T06:46:12.672Z,99918.03
2022-11-07T06:48:39.779Z,99918.81
2022-11-07T06:51:07.597Z,99920.38
2022-11-07T06:53:34.101Z,99919.94
2022-11-07T06:56:01.431Z,99923.59
2022-11-07T06:58:27.944Z,99939.53
2022-11-07T07:00:58.489Z,99928.59
2022-11-07T07:03:25.080Z,99940.06
2022-11-07T07:05:51.726Z,99938.38
2022-11-07T07:08:18.230Z,99948.09
2022-11-07T07:10:45.870Z,99953.47
2022-11-07T07:13:14.025Z,99962.72
2022-11-07T07:15:51.308Z,99966.56
2022-11-07T07:18:19.602Z,99967.97
2022-11-07T07:20:47.117Z,99964.25
2022-11-07T07:23:13.668Z,99966.16
2022-11-07T07:25:40.172Z,99964.69
2022-11-07T07:28:06.603Z,99977.78
2022-11-07T07:30:33.522Z,99980.63
2022-11-07T07:33:00.156Z,99976.28
2022-11-07T07:35:26.724Z,99981.78
2022-11-07T07:37:53.612Z,99984.00
2022-11-07T07:40:20.379Z,99983.19
2022-11-07T07:42:47.903Z,99981.34
2022-11-07T07:45:15.887Z,99981.53
2022-11-07T07:47:44.671Z,99980.44
2022-11-07T07:50:12.879Z,99972.91
2022-11-07T07:52:39.416Z,99974.72
2022-11-07T07:55:11.376Z,99981.81
2022-11-07T07:57:39.250Z,99983.06
2022-11-07T08:00:06.321Z,99986.47
2022-11-07T08:02:38.550Z,99985.44
2022-11-07T08:05:05.480Z,99977.97
2022-11-07T08:07:31.880Z,99981.03
2022-11-07T08:10:02.115Z,99980.09
2022-11-07T08:12:31.925Z,99988.00
2022-11-07T08:14:58.326Z,99988.72
2022-11-07T08:17:24.767Z,99989.03
2022-11-07T08:19:51.294Z,99995.31
2022-11-07T08:22:17.734Z,99995.97
2022-11-07T08:24:46.243Z,99993.16
2022-11-07T08:27:12.687Z,99999.56
2022-11-07T08:29:39.114Z,99990.19
2022-11-07T08:32:05.694Z,99996.16
2022-11-07T08:34:32.214Z,99994.44
2022-11-07T08:36:58.729Z,99989.75
2022-11-07T08:39:25.250Z,99988.22
2022-11-07T08:41:53.761Z,100000.16
2022-11-07T08:44:21.398Z,99993.88
2022-11-07T08:46:51.262Z,99992.38
2022-11-07T08:49:17.810Z,99988.34
2022-11-07T08:51:48.912Z,99989.63
2022-11-07T08:54:15.684Z,99996.72
2022-11-07T08:56:42.178Z,100004.75
2022-11-07T08:59:09.851Z,100005.44
2022-11-07T09:01:55.971Z,100004.53
2022-11-07T09:04:23.141Z,100011.63
2022-11-07T09:06:49.642Z,100005.38
2022-11-07T09:09:18.503Z,100009.66
2022-11-07T09:11:44.958Z,100009.63
2022-11-07T09:14:11.394Z,100010.53
2022-11-07T09:16:37.829Z,100008.78
2022-11-07T09:19:04.286Z,100010.34
2022-11-07T09:21:30.834Z,100007.38
2022-11-07T09:23:57.268Z,100002.16
2022-11-07T09:26:23.816Z,100001.78
2022-11-07T09:28:53.118Z,100003.78
2022-11-07T09:31:22.016Z,100007.50
2022-11-07T09:33:48.577Z,100008.78
2022-11-07T09:36:15.129Z,100005.50
2022-11-07T09:38:41.624Z,100012.97
2022-11-07T09:41:29.615Z,100011.84
2022-11-07T09:44:08.288Z,100006.75
2022-11-07T09:47:06.875Z,100016.72
2022-11-07T09:49:44.539Z,100020.44
2022-11-07T09:52:17.083Z,100024.28
2022-11-07T09:54:50.593Z,100015.44
2022-11-07T09:57:18.867Z,100023.88
2022-11-07T09:59:51.465Z,100025.44
2022-11-07T10:02:21.721Z,100024.16
2022-11-07T10:04:55.666Z,100028.03
2022-11-07T10:07:32.393Z,100031.59
2022-11-07T10:10:21.046Z,100037.22
2022-11-07T10:12:57.710Z,100032.66
2022-11-07T10:15:30.238Z,100021.75
2022-11-07T10:18:23.893Z,100021.78
2022-11-07T10:21:37.259Z,100030.00
2022-11-07T10:24:27.871Z,100042.09
2022-11-07T10:26:56.222Z,100043.97
2022-11-07T10:29:27.151Z,100054.72
2022-11-07T10:32:08.984Z,100043.81
2022-11-07T10:34:41.809Z,100036.94
2022-11-07T10:37:09.265Z,100046.84
2022-11-07T10:39:35.718Z,100050.38
2022-11-07T10:42:08.269Z,100052.50
2022-11-07T10:44:35.424Z,100051.56
2022-11-07T10:47:03.404Z,100039.69
2022-11-07T10:49:31.804Z,100043.53
2022-11-07T10:52:25.757Z,100045.81
2022-11-07T10:54:52.398Z,100048.19
2022-11-07T10:57:22.280Z,100038.00
2022-11-07T10:59:51.810Z,100049.09
2022-11-07T11:02:19.610Z,100049.72
2022-11-07T11:04:55.745Z,100047.56
2022-11-07T11:07:28.644Z,100051.09
2022-11-07T11:09:57.684Z,100044.69
2022-11-07T11:12:34.709Z,100046.88
2022-11-07T11:15:14.066Z,100041.66
2022-11-07T11:17:41.280Z,100044.75
2022-11-07T11:20:28.728Z,100042.63
2022-11-07T11:22:55.328Z,100038.00
2022-11-07T11:25:23.815Z,100033.09
2022-11-07T11:28:05.870Z,100038.41
2022-11-07T11:30:35.821Z,100026.34
2022-11-07T11:33:16.121Z,100027.97
2022-11-07T11:36:22.996Z,100019.31
2022-11-07T11:38:55.345Z,100011.94
2022-11-07T11:41:36.643Z,100014.16
2022-11-07T11:44:06.701Z,100008.50
2022-11-07T11:46:57.626Z,100007.38
2022-11-07T11:49:40.241Z,100002.88
2022-11-07T11:52:16.754Z,100001.28
2022-11-07T11:54:48.358Z,100011.31
2022-11-07T11:57:23.043Z,100011.31
2022-11-07T12:00:02.997Z,100011.63
2022-11-07T12:02:46.812Z,100009.03
2022-11-07T12:05:38.093Z,100007.06
2022-11-07T12:08:14.194Z,100002.94
2022-11-07T12:11:02.398Z,100007.28
2022-11-07T12:13:51.357Z,99996.34
2022-11-07T12:16:39.786Z,99989.84
2022-11-07T12:19:29.585Z,99989.75
2022-11-07T12:22:24.191Z,99998.00
2022-11-07T12:25:00.110Z,99997.44
2022-11-07T12:27:42.070Z,99993.69
2022-11-07T12:30:09.077Z,99984.81
2022-11-07T12:33:01.198Z,99994.75
2022-11-07T12:35:36.804Z,99994.31
2022-11-07T12:38:11.602Z,99993.84
2022-11-07T12:41:17.399Z,99992.41
2022-11-07T12:44:14.928Z,99987.88
2022-11-07T12:46:47.603Z,99983.00
2022-11-07T12:49:40.800Z,99995.28
2022-11-07T12:52:30.105Z,99994.75
2022-11-07T12:55:02.154Z,99989.09
2022-11-07T12:57:34.253Z,99988.53
2022-11-07T13:00:15.569Z,99987.38
2022-11-07T13:03:30.429Z,99988.03
2022-11-07T13:06:22.086Z,99982.81
2022-11-07T13:08:58.670Z,99980.94
2022-11-07T13:12:09.740Z,99979.13
2022-11-07T13:14:41.909Z,99982.44
2022-11-07T13:17:08.403Z,99984.53
2022-11-07T13:19:37.158Z,99983.13
2022-11-07T13:22:06.589Z,99971.91
2022-11-07T13:24:51.206Z,99976.53
2022-11-07T13:27:24.813Z,99969.44
2022-11-07T13:29:51.935Z,99972.88
2022-11-07T13:32:18.507Z,99973.50
2022-11-07T13:34:47.795Z,99965.16
2022-11-07T13:37:40.221Z,99976.69
2022-11-07T13:40:25.288Z,99972.06
2022-11-07T13:43:13.699Z,99977.03
2022-11-07T13:45:40.163Z,99981.81
2022-11-07T13:48:16.333Z,99982.00
2022-11-07T13:50:50.267Z,99973.72
2022-11-07T13:53:19.943Z,99981.91
2022-11-07T13:55:56.678Z,99978.78
2022-11-07T13:58:25.225Z,99980.16
2022-11-07T14:00:51.777Z,99979.94
2022-11-07T14:03:28.219Z,99989.47
2022-11-07T14:05:56.045Z,99987.16
2022-11-07T14:11:23.115Z,99975.56
2022-11-07T14:13:52.722Z,99976.06
2022-11-07T14:16:23.248Z,99983.84
2022-11-07T14:18:55.169Z,99982.94
2022-11-07T14:21:28.525Z,99985.28
2022-11-07T14:23:55.652Z,99995.72
2022-11-07T14:26:32.938Z,99994.53
2022-11-07T14:29:03.669Z,99997.38
2022-11-07T14:31:34.029Z,99997.38
2022-11-07T14:34:21.133Z,100004.94
2022-11-07T14:36:48.707Z,99997.94
2022-11-07T14:39:16.078Z,99995.00
2022-11-07T14:41:44.601Z,99999.00
2022-11-07T14:44:19.190Z,99993.56
2022-11-07T14:46:48.673Z,99991.50
2022-11-07T14:49:28.794Z,99990.50
2022-11-07T14:51:56.363Z,99983.47
2022-11-07T14:54:31.644Z,99994.53
2022-11-07T14:56:59.256Z,99992.38
2022-11-07T14:59:27.272Z,99995.00
2022-11-07T15:01:57.644Z,99997.16
2022-11-07T15:04:35.544Z,99993.63
2022-11-07T15:07:26.294Z,99994.47
2022-11-07T15:09:55.103Z,99998.78
2022-11-07T15:12:27.025Z,99992.47
2022-11-07T15:15:19.042Z,99995.53
2022-11-07T15:17:52.458Z,99993.97
2022-11-07T15:20:38.299Z,99989.66
2022-11-07T15:23:27.164Z,99993.09
2022-11-07T15:26:06.595Z,99990.81
2022-11-07T15:28:42.171Z,99990.66
2022-11-07T15:31:25.566Z,99991.09
2022-11-07T15:33:54.542Z,99988.41
2022-11-07T15:36:21.078Z,99991.59
2022-11-07T15:38:49.095Z,99997.50
2022-11-07T15:41:15.761Z,100001.06
2022-11-07T15:43:42.359Z,99999.38
2022-11-07T15:46:40.040Z,100001.22
2022-11-07T15:49:07.581Z,100001.28
2022-11-07T15:51:35.207Z,100001.59
2022-11-07T15:54:02.727Z,100001.94
2022-11-07T15:56:30.353Z,100005.88
2022-11-07T15:58:59.495Z,100000.97
2022-11-07T16:01:27.169Z,99996.06
2022-11-07T16:03:57.093Z,99995.63
2022-11-07T16:06:28.273Z,100002.06
2022-11-07T16:08:56.468Z,100003.34
2022-11-07T16:11:24.175Z,99999.69
2022-11-07T16:13:59.273Z,99994.34
2022-11-07T16:16:35.626Z,99981.50
2022-11-07T16:19:03.423Z,99985.28
2022-11-07T16:21:30.926Z,99988.44
2022-11-07T16:23:57.766Z,99979.91
2022-11-07T16:26:29.583Z,99992.75
2022-11-07T16:28:56.156Z,99996.97
2022-11-07T16:31:23.771Z,99990.78
2022-11-07T16:33:53.582Z,100003.91
2022-11-07T16:36:24.235Z,100005.19
2022-11-07T16:38:51.351Z,100008.50
2022-11-07T16:41:18.201Z,100005.44
2022-11-07T16:43:46.334Z,100004.19
2022-11-07T16:46:19.961Z,100004.06
2022-11-07T16:48:52.911Z,100003.28
2022-11-07T16:51:21.217Z,100002.91
2022-11-07T16:53:48.490Z,99998.19
2022-11-07T16:56:31.074Z,99994.28
2022-11-07T16:58:58.312Z,99995.13
2022-11-07T17:01:26.839Z,99993.41
2022-11-07T17:03:56.381Z,99994.69
2022-11-07T17:06:34.650Z,99998.09
2022-11-07T17:09:08.938Z,99998.53
2022-11-07T17:11:37.670Z,100005.34
2022-11-07T17:14:04.325Z,100013.44
2022-11-07T17:16:34.834Z,100012.13
2022-11-07T17:19:01.796Z,100006.97
2022-11-07T17:21:37.607Z,100009.16
2022-11-07T17:24:04.857Z,100018.00
2022-11-07T17:26:35.079Z,100009.81
2022-11-07T17:29:04.788Z,100019.66
2022-11-07T17:31:37.320Z,100022.41
2022-11-07T17:34:03.930Z,100015.41
2022-11-07T17:36:37.171Z,100021.19
2022-11-07T17:39:11.667Z,100021.75
2022-11-07T17:41:43.579Z,100016.47
2022-11-07T17:44:11.090Z,100019.59
2022-11-07T17:46:42.035Z,100021.63
2022-11-07T17:49:14.852Z,100025.69
2022-11-07T17:51:42.128Z,100031.03
2022-11-07T17:54:16.759Z,100030.34
2022-11-07T17:56:46.686Z,100036.78
2022-11-07T17:59:26.781Z,100024.97
2022-11-07T18:01:57.518Z,100035.19
2022-11-07T18:04:38.955Z,100036.00
2022-11-07T18:07:14.617Z,100032.81
2022-11-07T18:09:41.661Z,100037.13
2022-11-07T18:12:09.618Z,100034.66
2022-11-07T18:17:23.064Z,100029.50
2022-11-07T18:19:49.787Z,100032.28
2022-11-07T18:22:17.595Z,100029.38
2022-11-07T18:24:46.502Z,100042.78
2022-11-07T18:27:16.322Z,100037.75
2022-11-07T18:29:43.036Z,100039.41
2022-11-07T18:32:09.660Z,100035.28
2022-11-07T18:34:36.181Z,100041.38
2022-11-07T18:37:02.601Z,100048.31
2022-11-07T18:39:29.106Z,100044.47
2022-11-07T18:41:55.700Z,100039.69
2022-11-07T18:44:22.548Z,100031.22
2022-11-07T18:46:49.067Z,100035.72
2022-11-07T18:49:19.738Z,100031.22
2022-11-07T18:51:46.425Z,100034.97
2022-11-07T18:54:13.917Z,100029.63
2022-11-07T18:56:41.317Z,100026.22
2022-11-07T18:59:07.866Z,100029.09
2022-11-07T19:01:37.641Z,100030.97
2022-11-07T19:04:05.926Z,100033.41
2022-11-07T19:06:36.372Z,100027.69
2022-11-07T19:09:03.700Z,100027.41
2022-11-07T19:11:37.281Z,100031.66
2022-11-07T19:14:03.860Z,100038.53
2022-11-07T19:16:30.751Z,100031.66
2022-11-07T19:18:59.594Z,100028.06
2022-11-07T19:21:26.386Z,100035.06
2022-11-07T19:23:52.926Z,100032.59
2022-11-07T19:26:19.846Z,100034.91
2022-11-07T19:28:47.007Z,100047.88
2022-11-07T19:31:14.188Z,100040.00
2022-11-07T19:33:41.559Z,100042.22
2022-11-07T19:36:14.126Z,100043.03
2022-11-07T19:38:40.846Z,100040.28
2022-11-07T19:41:11.631Z,100042.16
2022-11-07T19:43:42.408Z,100039.41
2022-11-07T19:46:14.839Z,100040.28
2022-11-07T19:48:41.549Z,100051.69
2022-11-07T19:51:09.918Z,100051.03
2022-11-07T19:53:36.380Z,100043.50
2022-11-07T19:56:08.599Z,100045.97
2022-11-07T19:58:36.691Z,100041.72
2022-11-07T20:01:12.949Z,100032.28
2022-11-07T20:03:39.569Z,100036.19
2022-11-07T20:06:10.305Z,100036.50
2022-11-07T20:08:37.151Z,100037.94
2022-11-07T20:11:03.864Z,100036.44
2022-11-07T20:13:30.395Z,100031.66
2022-11-07T20:15:57.841Z,100038.03
2022-11-07T20:18:24.689Z,100040.84
2022-11-07T20:20:51.189Z,100042.22
2022-11-07T20:23:17.810Z,100039.66
2022-11-07T20:25:44.512Z,100046.59
2022-11-07T20:28:10.919Z,100051.16
2022-11-07T20:30:41.123Z,100057.50
2022-11-07T20:33:10.588Z,100046.28
2022-11-07T20:35:37.195Z,100049.63
2022-11-07T20:38:05.789Z,100052.50
2022-11-07T20:40:32.526Z,100047.47
2022-11-07T20:43:01.646Z,100043.81
2022-11-07T20:45:28.396Z,100050.09
2022-11-07T20:47:54.901Z,100042.38
2022-11-07T20:50:21.366Z,100046.03
2022-11-07T20:52:47.804Z,100041.50
2022-11-07T20:55:14.294Z,100047.34
2022-11-07T20:57:41.017Z,100060.63
2022-11-07T21:00:08.181Z,100057.03
2022-11-07T21:02:34.682Z,100048.50
2022-11-07T21:05:20.257Z,100049.72
2022-11-07T21:07:48.277Z,100054.88
2022-11-07T21:10:14.883Z,100050.69
2022-11-07T21:12:42.762Z,100052.97
2022-11-07T21:15:10.147Z,100046.81
2022-11-07T21:17:37.231Z,100057.25
2022-11-07T21:20:05.315Z,100052.81
2022-11-07T21:22:31.828Z,100051.97
2022-11-07T21:24:58.535Z,100060.84
2022-11-07T21:27:24.962Z,100053.13
2022-11-07T21:29:51.432Z,100049.00
2022-11-07T21:32:17.864Z,100050.69
2022-11-07T21:34:46.200Z,100050.16
2022-11-07T21:37:12.645Z,100055.50
2022-11-07T21:39:39.112Z,100054.72
2022-11-07T21:42:05.691Z,100051.16
2022-11-07T21:44:32.336Z,100058.34
2022-11-07T21:46:58.883Z,100039.72
2022-11-07T21:49:25.287Z,100052.97
2022-11-07T21:51:51.838Z,100045.25
2022-11-07T21:54:18.356Z,100040.88
2022-11-07T21:56:44.815Z,100039.28
2022-11-07T21:59:12.171Z,100036.66
2022-11-07T22:01:39.748Z,100049.75
2022-11-07T22:04:09.997Z,100042.78
2022-11-07T22:06:39.504Z,100034.13
2022-11-07T22:09:07.273Z,100031.88
2022-11-07T22:11:33.719Z,100027.41
2022-11-07T22:14:00.248Z,100025.66
2022-11-07T22:16:27.045Z,100029.94
2022-11-07T22:18:53.512Z,100023.94
2022-11-07T22:21:22.871Z,100017.88
2022-11-07T22:23:50.841Z,100020.59
2022-11-07T22:26:22.769Z,100016.28
2022-11-07T22:28:49.486Z,100013.31
2022-11-07T22:31:22.845Z,100014.88
2022-11-07T22:33:50.341Z,100010.81
2022-11-07T22:36:17.809Z,100007.19
2022-11-07T22:38:44.566Z,100002.81
2022-11-07T22:41:14.766Z,100008.03
2022-11-07T22:43:41.477Z,100002.16
2022-11-07T22:46:13.744Z,100000.81
2022-11-07T22:48:41.247Z,100005.38
2022-11-07T22:51:46.963Z,100001.13
2022-11-07T22:54:13.816Z,99994.25
2022-11-07T22:56:40.846Z,99999.13
2022-11-07T22:59:07.509Z,99996.63
